Time;durP1;ratioP1;P1;durP2;ratioP2;P2;SDS_P1;SDS_P2;PMS_P1;PMS_P2;Temp;Humidity;BMP_temperature;BMP_pressure;BME280_temperature;BME280_humidity;BME280_pressure;Samples;Min_cycle;Max_cycle;Signal;HPM_P1;HPM_P2
2023/12/08 00:01:15;;;;;;;1999.90;999.90;;;2.70;99.90;;;;;;4994752;28;20361;-71
2023/12/08 00:03:41;;;;;;;1999.90;999.90;;;2.70;99.90;;;;;;4991796;28;20421;-71
2023/12/08 00:06:07;;;;;;;1999.90;999.90;;;2.70;99.90;;;;;;4994089;28;20036;-70
2023/12/08 00:08:34;;;;;;;1999.90;999.90;;;2.80;99.90;;;;;;4991234;28;20094;-71
2023/12/08 00:10:59;;;;;;;1999.90;999.90;;;2.70;99.90;;;;;;4999603;28;20379;-71
2023/12/08 00:13:25;;;;;;;1999.90;999.90;;;2.70;99.90;;;;;;4992362;28;20141;-70
2023/12/08 00:15:51;;;;;;;1999.90;999.90;;;2.70;99.90;;;;;;4991874;28;20041;-71
2023/12/08 00:18:17;;;;;;;1999.90;999.90;;;2.70;99.90;;;;;;4991869;28;20038;-71
2023/12/08 00:20:43;;;;;;;1999.90;999.90;;;2.70;99.90;;;;;;4993274;28;20386;-71
2023/12/08 00:23:09;;;;;;;1999.90;999.90;;;2.70;99.90;;;;;;4999392;28;20030;-68
2023/12/08 00:25:34;;;;;;;1999.90;999.90;;;2.70;99.90;;;;;;4998029;28;20035;-70
2023/12/08 00:28:00;;;;;;;1999.90;999.90;;;2.70;99.90;;;;;;5019537;28;20111;-71
2023/12/08 00:30:26;;;;;;;1999.90;999.90;;;2.80;99.90;;;;;;5008264;28;20026;-71
2023/12/08 00:32:52;;;;;;;1999.90;999.90;;;2.70;99.90;;;;;;4973840;28;20127;-71
2023/12/08 00:35:18;;;;;;;1999.90;999.90;;;2.70;99.90;;;;;;5002329;28;20440;-71
2023/12/08 00:37:44;;;;;;;1999.90;999.90;;;2.70;99.90;;;;;;4991681;28;20079;-71
2023/12/08 00:40:11;;;;;;;1999.90;999.90;;;2.70;99.90;;;;;;5020275;28;20139;-71
2023/12/08 00:42:37;;;;;;;1999.90;999.90;;;2.70;99.90;;;;;;4991463;28;20030;-70
2023/12/08 00:45:04;;;;;;;1999.90;999.90;;;2.70;99.90;;;;;;4992135;28;20083;-71
2023/12/08 00:47:30;;;;;;;1999.90;999.90;;;2.70;99.90;;;;;;4977055;28;20056;-70
2023/12/08 00:49:56;;;;;;;1999.90;999.90;;;2.70;99.90;;;;;;5012262;28;20039;-69
2023/12/08 00:52:22;;;;;;;1999.90;999.90;;;2.70;99.90;;;;;;4990623;28;20033;-70
2023/12/08 00:54:48;;;;;;;1999.90;999.90;;;2.70;99.90;;;;;;4991183;28;20037;-71
2023/12/08 00:57:15;;;;;;;1999.90;999.90;;;2.70;99.90;;;;;;4997195;28;20062;-70
2023/12/08 00:59:41;;;;;;;1999.90;999.90;;;2.70;99.90;;;;;;4991583;28;20030;-71
2023/12/08 01:02:07;;;;;;;1999.90;999.90;;;2.70;99.90;;;;;;5018438;28;20062;-69
2023/12/08 01:04:33;;;;;;;1999.90;999.90;;;2.70;99.90;;;;;;5013319;28;20415;-71
2023/12/08 01:06:59;;;;;;;1999.90;999.90;;;2.70;99.90;;;;;;5006835;28;20032;-70
2023/12/08 01:09:26;;;;;;;1999.90;999.90;;;2.60;99.90;;;;;;5005128;28;20265;-71
2023/12/08 01:11:52;;;;;;;1999.90;999.90;;;2.60;99.90;;;;;;4992151;28;20031;-71
2023/12/08 01:14:18;;;;;;;1999.90;999.90;;;2.70;99.90;;;;;;5027194;28;20032;-71
2023/12/08 01:16:43;;;;;;;1999.90;999.90;;;2.70;99.90;;;;;;4994289;28;20031;-70
2023/12/08 01:19:11;;;;;;;1999.90;999.90;;;2.70;99.90;;;;;;4991091;28;20325;-70
2023/12/08 01:21:38;;;;;;;1999.90;999.90;;;2.60;99.90;;;;;;4990863;28;20023;-71
2023/12/08 01:24:05;;;;;;;1999.90;999.90;;;2.60;99.90;;;;;;4997906;28;20034;-70
2023/12/08 01:26:31;;;;;;;1999.90;999.90;;;2.60;99.90;;;;;;5013668;28;20046;-70
2023/12/08 01:28:57;;;;;;;1999.90;999.90;;;2.70;99.90;;;;;;4973595;28;20054;-70
2023/12/08 01:31:23;;;;;;;1999.90;999.90;;;2.70;99.90;;;;;;4994973;28;20413;-70
2023/12/08 01:33:48;;;;;;;1999.90;999.90;;;2.60;99.90;;;;;;4997123;28;20026;-70
2023/12/08 01:36:14;;;;;;;1999.90;999.90;;;2.60;99.90;;;;;;4990002;28;20034;-70
2023/12/08 01:38:47;;;;;;;1999.90;999.90;;;2.60;99.90;;;;;;4990030;28;20095;-70
2023/12/08 01:41:16;;;;;;;1999.90;999.90;;;2.60;99.90;;;;;;4976887;28;20022;-70
2023/12/08 01:43:45;;;;;;;1999.90;999.90;;;2.60;99.90;;;;;;4996050;28;20865;-70
2023/12/08 01:46:21;;;;;;;1999.90;999.90;;;2.60;99.90;;;;;;4994301;28;20093;-70
2023/12/08 01:48:47;;;;;;;1999.90;999.90;;;2.60;99.90;;;;;;4993301;28;20076;-71
2023/12/08 01:51:15;;;;;;;1999.90;999.90;;;2.50;99.90;;;;;;4991075;28;20026;-70
2023/12/08 01:53:41;;;;;;;1999.90;999.90;;;2.60;99.90;;;;;;4986242;28;20053;-70
2023/12/08 01:56:08;;;;;;;1999.90;999.90;;;2.60;99.90;;;;;;4997420;28;20083;-70
2023/12/08 01:58:38;;;;;;;1999.90;999.90;;;2.60;99.90;;;;;;4995598;28;20085;-71
2023/12/08 02:01:04;;;;;;;1999.90;999.90;;;2.60;99.90;;;;;;4992840;28;20387;-70
2023/12/08 02:03:35;;;;;;;1999.90;999.90;;;2.60;99.90;;;;;;4996855;28;20074;-70
2023/12/08 02:06:01;;;;;;;1999.90;999.90;;;2.60;99.90;;;;;;4993802;28;20113;-70
2023/12/08 02:08:27;;;;;;;1999.90;999.90;;;2.60;99.90;;;;;;4993393;28;20027;-70
2023/12/08 02:10:54;;;;;;;1999.90;999.90;;;2.60;99.90;;;;;;4994649;28;20018;-70
2023/12/08 02:13:21;;;;;;;1999.90;999.90;;;2.60;99.90;;;;;;4978374;28;20072;-70
2023/12/08 02:15:54;;;;;;;1999.90;999.90;;;2.60;99.90;;;;;;4993648;28;20045;-70
2023/12/08 02:18:21;;;;;;;1999.90;999.90;;;2.60;99.90;;;;;;5011476;28;20025;-70
2023/12/08 02:20:47;;;;;;;1999.90;999.90;;;2.60;99.90;;;;;;4993762;28;20329;-70
2023/12/08 02:23:13;;;;;;;1999.90;999.90;;;2.60;99.90;;;;;;4992376;28;20026;-70
2023/12/08 02:25:39;;;;;;;1999.90;999.90;;;2.60;99.90;;;;;;5002957;28;20054;-70
2023/12/08 02:28:05;;;;;;;1999.90;999.90;;;2.70;99.90;;;;;;4992680;28;20030;-70
2023/12/08 02:30:32;;;;;;;1999.90;999.90;;;2.70;99.90;;;;;;4991953;28;20417;-70
2023/12/08 02:33:11;;;;;;;1999.90;999.90;;;2.60;99.90;;;;;;4993270;28;20053;-70
2023/12/08 02:35:40;;;;;;;1999.90;999.90;;;2.70;99.90;;;;;;4993689;28;20113;-71
2023/12/08 02:38:08;;;;;;;1999.90;999.90;;;2.70;99.90;;;;;;4992297;28;20022;-70
2023/12/08 02:40:37;;;;;;;1999.90;999.90;;;2.70;99.90;;;;;;5001331;28;20031;-71
2023/12/08 02:43:03;;;;;;;1999.90;999.90;;;2.70;99.90;;;;;;4993585;28;20023;-71
2023/12/08 02:45:29;;;;;;;1999.90;999.90;;;2.70;99.90;;;;;;4993695;28;20029;-70
2023/12/08 02:47:55;;;;;;;1999.90;999.90;;;2.70;99.90;;;;;;5000154;28;20023;-70
2023/12/08 02:50:20;;;;;;;1999.90;999.90;;;2.80;99.90;;;;;;5003330;28;20026;-70
2023/12/08 02:52:46;;;;;;;1999.90;999.90;;;2.70;99.90;;;;;;5006253;28;20313;-70
2023/12/08 02:55:12;;;;;;;1999.90;999.90;;;2.80;99.90;;;;;;4999988;28;20496;-70
2023/12/08 02:57:38;;;;;;;1999.90;999.90;;;2.80;99.90;;;;;;4993762;28;20124;-70
2023/12/08 03:00:04;;;;;;;1999.90;999.90;;;2.80;99.90;;;;;;4993722;28;20030;-70
2023/12/08 03:02:30;;;;;;;1999.90;999.90;;;2.80;99.90;;;;;;5001487;28;20440;-71
2023/12/08 03:04:56;;;;;;;1999.90;999.90;;;2.80;99.90;;;;;;4994214;28;20038;-70
2023/12/08 03:07:21;;;;;;;1999.90;999.90;;;2.80;99.90;;;;;;4976140;28;20028;-71
2023/12/08 03:09:48;;;;;;;1999.90;999.90;;;2.80;99.90;;;;;;4982629;28;20039;-71
2023/12/08 03:12:14;;;;;;;;;;;2.80;99.90;;;;;;4994348;28;20122;-71
2023/12/08 03:14:40;;;;;;;1999.90;999.90;;;2.80;99.90;;;;;;5001153;28;20324;-71
2023/12/08 03:17:05;;;;;;;1999.90;999.90;;;2.70;99.90;;;;;;4993482;28;20268;-71
2023/12/08 03:19:31;;;;;;;1999.90;999.90;;;2.70;99.90;;;;;;5000471;28;20263;-70
2023/12/08 03:21:57;;;;;;;1999.90;999.90;;;2.70;99.90;;;;;;4990043;28;20019;-70
2023/12/08 03:24:23;;;;;;;1999.90;999.90;;;2.70;99.90;;;;;;4990589;28;20045;-71
2023/12/08 03:26:48;;;;;;;1999.90;999.90;;;2.70;99.90;;;;;;4995714;28;20030;-70
2023/12/08 03:29:17;;;;;;;1999.90;999.90;;;2.70;99.90;;;;;;4997464;28;20306;-71
2023/12/08 03:31:43;;;;;;;1999.90;999.90;;;2.70;99.90;;;;;;4993415;28;20050;-71
2023/12/08 03:34:09;;;;;;;1999.90;999.90;;;2.70;99.90;;;;;;4975011;28;20050;-71
2023/12/08 03:36:35;;;;;;;1999.90;999.90;;;2.70;99.90;;;;;;5001396;28;20049;-71
2023/12/08 03:39:01;;;;;;;1999.90;999.90;;;2.70;99.90;;;;;;5015132;28;20114;-71
2023/12/08 03:41:26;;;;;;;1999.90;999.90;;;2.70;99.90;;;;;;4974727;28;20425;-70
2023/12/08 03:43:52;;;;;;;1999.90;999.90;;;2.70;99.90;;;;;;4981729;28;20392;-70
2023/12/08 03:46:18;;;;;;;1999.90;999.90;;;2.70;99.90;;;;;;5000184;28;20033;-70
2023/12/08 03:48:44;;;;;;;1999.90;999.90;;;2.70;99.90;;;;;;4993905;28;20018;-70
2023/12/08 03:51:10;;;;;;;1999.90;999.90;;;2.70;99.90;;;;;;5007719;28;20309;-71
2023/12/08 03:53:36;;;;;;;1999.90;999.90;;;2.70;99.90;;;;;;5014654;28;20044;-70
2023/12/08 03:56:01;;;;;;;1999.90;999.90;;;2.60;99.90;;;;;;4993868;28;20519;-70
2023/12/08 03:58:28;;;;;;;1999.90;999.90;;;2.60;99.90;;;;;;4991844;28;20101;-70
2023/12/08 04:00:53;;;;;;;1999.90;999.90;;;2.60;99.90;;;;;;4992155;28;20107;-71
2023/12/08 04:03:20;;;;;;;1999.90;999.90;;;2.70;99.90;;;;;;4995569;28;20068;-70
2023/12/08 04:05:45;;;;;;;1999.90;999.90;;;2.70;99.90;;;;;;4994256;28;20021;-70
2023/12/08 04:08:11;;;;;;;1999.90;999.90;;;2.70;99.90;;;;;;5009529;28;20033;-70
2023/12/08 04:10:37;;;;;;;1999.90;999.90;;;2.60;99.90;;;;;;4993363;28;20041;-70
2023/12/08 04:13:03;;;;;;;1999.90;999.90;;;2.70;99.90;;;;;;4999533;28;20039;-71
2023/12/08 04:15:28;;;;;;;1999.90;999.90;;;2.70;99.90;;;;;;4991596;28;20128;-70
2023/12/08 04:17:54;;;;;;;1999.90;999.90;;;2.60;99.90;;;;;;4993039;28;20038;-70
2023/12/08 04:20:20;;;;;;;1999.90;999.90;;;2.60;99.90;;;;;;4991448;28;20474;-70
2023/12/08 04:22:46;;;;;;;1999.90;999.90;;;2.70;99.90;;;;;;5003640;28;20042;-71
2023/12/08 04:25:13;;;;;;;1999.90;999.90;;;2.70;99.90;;;;;;5002109;28;20038;-70
2023/12/08 04:27:38;;;;;;;;;;;2.60;99.90;;;;;;4993636;28;20046;-70
2023/12/08 04:30:05;;;;;;;1999.90;999.90;;;2.70;99.90;;;;;;4991521;28;19920;-70
2023/12/08 04:32:32;;;;;;;1999.90;999.90;;;2.70;99.90;;;;;;4990914;28;20060;-70
2023/12/08 04:34:58;;;;;;;1999.90;999.90;;;2.70;99.90;;;;;;4991504;28;20026;-71
2023/12/08 04:37:23;;;;;;;1999.90;999.90;;;2.70;99.90;;;;;;4994048;28;20338;-70
2023/12/08 04:39:49;;;;;;;1999.90;999.90;;;2.70;99.90;;;;;;5013512;28;20031;-70
2023/12/08 04:42:16;;;;;;;1999.90;999.90;;;2.70;99.90;;;;;;4993192;28;20039;-70
2023/12/08 04:44:42;;;;;;;1999.90;999.90;;;2.70;99.90;;;;;;4974146;28;20374;-70
2023/12/08 04:47:09;;;;;;;1999.90;999.90;;;2.70;99.90;;;;;;4992583;28;20058;-70
2023/12/08 04:49:34;;;;;;;;;;;2.70;99.90;;;;;;4974427;28;20054;-71
2023/12/08 04:52:00;;;;;;;1999.90;999.90;;;2.70;99.90;;;;;;4992831;28;19957;-71
2023/12/08 04:54:26;;;;;;;1999.90;999.90;;;2.80;99.90;;;;;;4991410;28;20040;-70
2023/12/08 04:56:52;;;;;;;1999.90;999.90;;;2.70;99.90;;;;;;4973653;28;20095;-70
2023/12/08 04:59:18;;;;;;;1999.90;999.90;;;2.70;99.90;;;;;;5009682;28;20413;-71
2023/12/08 05:01:48;;;;;;;1999.90;999.90;;;2.70;99.90;;;;;;4991431;28;20037;-70
2023/12/08 05:04:14;;;;;;;1999.90;999.90;;;2.80;99.90;;;;;;4999017;28;20038;-71
2023/12/08 05:06:40;;;;;;;1999.90;999.90;;;2.70;99.90;;;;;;4998599;28;20105;-70
2023/12/08 05:09:05;;;;;;;1999.90;999.90;;;2.70;99.90;;;;;;4989883;28;20031;-70
2023/12/08 05:11:31;;;;;;;1999.90;999.90;;;2.70;99.90;;;;;;4990976;28;20022;-71
2023/12/08 05:13:57;;;;;;;1999.90;999.90;;;2.70;99.90;;;;;;5008490;28;20362;-70
2023/12/08 05:16:23;;;;;;;1999.90;999.90;;;2.70;99.90;;;;;;5024999;28;20038;-71
2023/12/08 05:18:48;;;;;;;1999.90;999.90;;;2.80;99.90;;;;;;4976852;28;20566;-70
2023/12/08 05:21:14;;;;;;;1999.90;999.90;;;2.80;99.90;;;;;;4990806;28;20070;-70
2023/12/08 05:23:40;;;;;;;1999.90;999.90;;;2.80;99.90;;;;;;4992119;28;20167;-71
2023/12/08 05:26:06;;;;;;;1999.90;999.90;;;2.70;99.90;;;;;;5004530;28;20046;-71
2023/12/08 05:28:32;;;;;;;1999.90;999.90;;;2.80;99.90;;;;;;4994198;28;20428;-71
2023/12/08 05:30:59;;;;;;;1999.90;999.90;;;2.70;99.90;;;;;;4994674;28;20115;-71
2023/12/08 05:33:24;;;;;;;1999.90;999.90;;;2.70;99.90;;;;;;5027433;28;20041;-71
2023/12/08 05:35:50;;;;;;;1999.90;999.90;;;2.80;99.90;;;;;;5028565;28;20029;-71
2023/12/08 05:38:16;;;;;;;1999.90;999.90;;;2.70;99.90;;;;;;4995389;28;20026;-71
2023/12/08 05:40:42;;;;;;;1999.90;999.90;;;2.80;99.90;;;;;;4994776;28;20068;-70
2023/12/08 05:43:08;;;;;;;1999.90;999.90;;;2.70;99.90;;;;;;4998847;28;20133;-71
2023/12/08 05:45:33;;;;;;;1999.90;999.90;;;2.80;99.90;;;;;;4994236;28;20035;-71
2023/12/08 05:47:59;;;;;;;1999.90;999.90;;;2.80;99.90;;;;;;5029555;28;20030;-70
2023/12/08 05:50:25;;;;;;;1999.90;999.90;;;2.80;99.90;;;;;;4993485;28;20019;-70
2023/12/08 05:52:51;;;;;;;1999.90;999.90;;;2.80;99.90;;;;;;4998489;28;20030;-71
2023/12/08 05:55:17;;;;;;;1999.90;999.90;;;2.70;99.90;;;;;;4993881;28;20053;-71
2023/12/08 05:57:43;;;;;;;1999.90;999.90;;;2.80;99.90;;;;;;5008510;28;20079;-71
2023/12/08 06:00:12;;;;;;;1999.90;999.90;;;2.80;99.90;;;;;;4993391;28;20030;-70
2023/12/08 06:02:38;;;;;;;1999.90;999.90;;;2.70;99.90;;;;;;4995494;28;20035;-71
2023/12/08 06:05:04;;;;;;;1999.90;999.90;;;2.80;99.90;;;;;;5027804;28;20031;-70
2023/12/08 06:07:30;;;;;;;1999.90;999.90;;;2.80;99.90;;;;;;4995089;28;20023;-71
2023/12/08 06:09:55;;;;;;;1999.90;999.90;;;2.80;99.90;;;;;;4997670;28;20056;-71
2023/12/08 06:12:21;;;;;;;1999.90;999.90;;;2.80;99.90;;;;;;4992932;28;20057;-70
2023/12/08 06:14:47;;;;;;;1999.90;999.90;;;2.80;99.90;;;;;;4979583;28;20075;-70
2023/12/08 06:17:13;;;;;;;1999.90;999.90;;;2.80;99.90;;;;;;5014632;28;20019;-71
2023/12/08 06:19:40;;;;;;;1999.90;999.90;;;2.80;99.90;;;;;;4998336;28;20026;-71
2023/12/08 06:22:06;;;;;;;1999.90;999.90;;;2.80;99.90;;;;;;5000193;28;20160;-70
2023/12/08 06:24:32;;;;;;;1999.90;999.90;;;2.80;99.90;;;;;;4994293;28;20102;-71
2023/12/08 06:26:57;;;;;;;1999.90;999.90;;;2.90;99.90;;;;;;4998180;28;20046;-70
2023/12/08 06:29:23;;;;;;;1999.90;999.90;;;2.80;99.90;;;;;;4996720;28;20044;-70
2023/12/08 06:31:49;;;;;;;1999.90;999.90;;;2.90;99.90;;;;;;5017892;28;20294;-71
2023/12/08 06:34:15;;;;;;;1999.90;999.90;;;2.90;99.90;;;;;;4992593;28;20062;-70
2023/12/08 06:36:45;;;;;;;1999.90;999.90;;;2.90;99.90;;;;;;4995673;28;20040;-70
2023/12/08 06:39:21;;;;;;;1999.90;999.90;;;2.90;99.90;;;;;;4992979;28;20067;-70
2023/12/08 06:41:48;;;;;;;1999.90;999.90;;;2.90;99.90;;;;;;4997573;28;20069;-70
2023/12/08 06:44:13;;;;;;;1999.90;999.90;;;2.90;99.90;;;;;;4993791;28;20372;-70
2023/12/08 06:46:40;;;;;;;1999.90;999.90;;;2.90;99.90;;;;;;4974568;28;20031;-70
2023/12/08 06:49:06;;;;;;;1999.90;999.90;;;2.90;99.90;;;;;;4993960;28;20461;-70
2023/12/08 06:51:35;;;;;;;1999.90;999.90;;;2.90;99.90;;;;;;5004325;28;20030;-70
2023/12/08 06:54:02;;;;;;;1999.90;999.90;;;2.90;99.90;;;;;;4995255;28;20023;-70
2023/12/08 06:56:28;;;;;;;1999.90;999.90;;;2.90;99.90;;;;;;4997036;28;20022;-70
2023/12/08 06:58:53;;;;;;;1999.90;999.90;;;2.90;99.90;;;;;;4980747;28;20054;-70
2023/12/08 07:01:19;;;;;;;1999.90;999.90;;;2.90;99.90;;;;;;4999654;28;20057;-70
2023/12/08 07:03:46;;;;;;;1999.90;999.90;;;2.90;99.90;;;;;;4992655;28;20030;-70
2023/12/08 07:06:12;;;;;;;1999.90;999.90;;;2.90;99.90;;;;;;4993163;28;20109;-70
2023/12/08 07:08:38;;;;;;;1999.90;999.90;;;2.90;99.90;;;;;;4978305;28;20109;-70
2023/12/08 07:11:04;;;;;;;1999.90;999.90;;;3.00;99.90;;;;;;5007906;28;20273;-70
2023/12/08 07:13:30;;;;;;;1999.90;999.90;;;2.90;99.90;;;;;;5004702;28;20026;-70
2023/12/08 07:15:56;;;;;;;1999.90;999.90;;;2.90;99.90;;;;;;4994090;28;20041;-70
2023/12/08 07:18:22;;;;;;;1999.90;999.90;;;3.00;99.90;;;;;;4993130;28;20022;-70
2023/12/08 07:20:48;;;;;;;1999.90;999.90;;;3.00;99.90;;;;;;4999444;28;20038;-70
2023/12/08 07:23:14;;;;;;;1999.90;999.90;;;3.00;99.90;;;;;;5005297;28;20038;-70
2023/12/08 07:25:39;;;;;;;1999.90;999.90;;;3.00;99.90;;;;;;5000226;28;20329;-70
2023/12/08 07:28:05;;;;;;;1999.90;999.90;;;3.00;99.90;;;;;;4988545;28;20300;-70
2023/12/08 07:30:31;;;;;;;1999.90;999.90;;;3.00;99.90;;;;;;4992904;28;20046;-70
2023/12/08 07:32:57;;;;;;;1999.90;999.90;;;3.00;99.90;;;;;;4992661;28;20027;-70
2023/12/08 07:35:23;;;;;;;1999.90;999.90;;;3.00;99.90;;;;;;4992826;28;20062;-70
2023/12/08 07:37:49;;;;;;;1999.90;999.90;;;3.00;99.90;;;;;;4992253;28;20035;-70
2023/12/08 07:40:15;;;;;;;1999.90;999.90;;;3.00;99.90;;;;;;4992290;28;20037;-70
2023/12/08 07:42:42;;;;;;;1999.90;999.90;;;3.00;99.90;;;;;;4992479;28;20031;-70
2023/12/08 07:45:08;;;;;;;;;;;3.00;99.90;;;;;;4975627;28;20271;-70
2023/12/08 07:47:34;;;;;;;1999.90;999.90;;;3.10;99.90;;;;;;4992764;28;19913;-70
2023/12/08 07:50:00;;;;;;;1999.90;999.90;;;3.10;99.90;;;;;;4992912;28;20045;-70
2023/12/08 07:52:26;;;;;;;1999.90;999.90;;;3.10;99.90;;;;;;4991970;28;20026;-70
2023/12/08 07:54:52;;;;;;;1999.90;999.90;;;3.10;99.90;;;;;;4999045;28;20109;-70
2023/12/08 07:57:21;;;;;;;1999.90;999.90;;;3.10;99.90;;;;;;4990719;28;20268;-70
2023/12/08 07:59:47;;;;;;;1999.90;999.90;;;3.00;99.90;;;;;;4974339;28;20076;-70
2023/12/08 08:02:13;;;;;;;1999.90;999.90;;;3.00;99.90;;;;;;4991282;28;20033;-70
2023/12/08 08:04:39;;;;;;;1999.90;999.90;;;3.00;99.90;;;;;;4992971;28;20034;-70
2023/12/08 08:07:05;;;;;;;1999.90;999.90;;;3.10;99.90;;;;;;4997060;28;20351;-70
2023/12/08 08:09:31;;;;;;;1999.90;999.90;;;3.10;99.90;;;;;;4993456;28;20026;-70
2023/12/08 08:11:56;;;;;;;1999.90;999.90;;;3.10;99.90;;;;;;4991725;28;20431;-70
2023/12/08 08:14:22;;;;;;;1999.90;999.90;;;3.10;99.90;;;;;;4991514;28;20030;-70
2023/12/08 08:16:48;;;;;;;1999.90;999.90;;;3.10;99.90;;;;;;4991477;28;20054;-70
2023/12/08 08:19:14;;;;;;;1999.90;999.90;;;3.20;99.90;;;;;;5003400;28;20036;-70
2023/12/08 08:21:40;;;;;;;1999.90;999.90;;;3.20;99.90;;;;;;4992762;28;20030;-70
2023/12/08 08:24:06;;;;;;;1999.90;999.90;;;3.20;99.90;;;;;;5007825;28;20041;-70
2023/12/08 08:26:32;;;;;;;1999.90;999.90;;;3.20;99.90;;;;;;4999913;28;20046;-70
2023/12/08 08:28:58;;;;;;;1999.90;999.90;;;3.20;99.90;;;;;;5004431;28;20030;-70
2023/12/08 08:31:24;;;;;;;1999.90;999.90;;;3.20;99.90;;;;;;4991549;28;20018;-70
2023/12/08 08:33:50;;;;;;;1999.90;999.90;;;3.20;99.90;;;;;;4992280;28;20050;-70
2023/12/08 08:36:16;;;;;;;1999.90;999.90;;;3.30;99.90;;;;;;4990872;28;20336;-70
2023/12/08 08:38:42;;;;;;;1999.90;999.90;;;3.30;99.90;;;;;;4989502;28;20034;-70
2023/12/08 08:41:08;;;;;;;1999.90;999.90;;;3.30;99.90;;;;;;5001207;28;20034;-70
2023/12/08 08:43:34;;;;;;;1999.90;999.90;;;3.30;99.90;;;;;;4990759;28;20031;-70
2023/12/08 08:46:00;;;;;;;1999.90;999.90;;;3.30;99.90;;;;;;5001662;28;20329;-70
2023/12/08 08:48:26;;;;;;;1999.90;999.90;;;3.30;99.90;;;;;;4994719;28;20034;-70
2023/12/08 08:50:52;;;;;;;1999.90;999.90;;;3.30;99.90;;;;;;4990495;28;20431;-70
2023/12/08 08:53:18;;;;;;;1999.90;999.90;;;3.30;99.90;;;;;;4989252;28;20321;-70
2023/12/08 08:55:45;;;;;;;1999.90;999.90;;;3.30;99.90;;;;;;4991202;28;20053;-70
2023/12/08 08:58:10;;;;;;;1999.90;999.90;;;3.40;99.90;;;;;;4994329;28;20105;-70
2023/12/08 09:00:36;;;;;;;1999.90;999.90;;;3.50;99.90;;;;;;4987157;28;20159;-70
2023/12/08 09:03:03;;;;;;;1999.90;999.90;;;3.50;99.90;;;;;;4990717;28;20289;-70
2023/12/08 09:05:30;;;;;;;1999.90;999.90;;;3.50;99.90;;;;;;4990747;28;20062;-70
2023/12/08 09:07:56;;;;;;;1999.90;999.90;;;3.50;99.90;;;;;;4991413;28;20040;-70
2023/12/08 09:10:22;;;;;;;1999.90;999.90;;;3.60;99.90;;;;;;4988733;28;20355;-70
2023/12/08 09:12:48;;;;;;;1999.90;999.90;;;3.60;99.90;;;;;;4992747;28;20145;-70
2023/12/08 09:15:14;;;;;;;1999.90;999.90;;;3.70;99.90;;;;;;5002448;28;20034;-70
2023/12/08 09:17:41;;;;;;;1999.90;999.90;;;3.70;99.90;;;;;;4994979;28;20046;-70
2023/12/08 09:20:12;;;;;;;;;;;3.70;99.90;;;;;;4994993;28;20030;-70
2023/12/08 09:22:40;;;;;;;1999.90;999.90;;;3.70;99.90;;;;;;4991629;28;19928;-70
2023/12/08 09:25:06;;;;;;;;;;;3.70;99.90;;;;;;4988295;28;20398;-70
2023/12/08 09:27:32;;;;;;;1999.90;999.90;;;3.80;99.90;;;;;;4989692;28;19924;-70
2023/12/08 09:29:58;;;;;;;1999.90;999.90;;;3.80;99.90;;;;;;4991041;28;20039;-70
2023/12/08 09:32:24;;;;;;;1999.90;999.90;;;3.80;99.90;;;;;;5003539;28;20023;-70
2023/12/08 09:34:50;;;;;;;1999.90;999.90;;;3.80;99.90;;;;;;4990452;28;20403;-69
2023/12/08 09:37:15;;;;;;;1999.90;999.90;;;3.80;99.90;;;;;;4990126;28;20034;-70
2023/12/08 09:39:41;;;;;;;1999.90;999.90;;;3.90;99.90;;;;;;4990752;28;20031;-70
2023/12/08 09:42:10;;;;;;;1999.90;999.90;;;3.90;99.90;;;;;;4991288;28;20429;-70
2023/12/08 09:44:36;;;;;;;1999.90;999.90;;;3.90;99.90;;;;;;4990555;28;20068;-70
2023/12/08 09:47:08;;;;;;;1999.90;999.90;;;3.90;99.90;;;;;;4989912;28;20018;-70
2023/12/08 09:49:42;;;;;;;1999.90;999.90;;;3.90;99.90;;;;;;5012787;28;20063;-70
2023/12/08 09:52:09;;;;;;;1999.90;999.90;;;4.00;99.90;;;;;;4990995;28;20072;-70
2023/12/08 09:54:35;;;;;;;1999.90;999.90;;;4.00;99.90;;;;;;4990295;28;20420;-70
2023/12/08 09:57:03;;;;;;;1999.90;999.90;;;4.10;99.90;;;;;;4990461;28;20026;-70
2023/12/08 09:59:29;;;;;;;1999.90;999.90;;;4.10;99.90;;;;;;5026106;28;20111;-70
2023/12/08 10:01:55;;;;;;;1999.90;999.90;;;4.10;99.90;;;;;;4972719;28;20061;-70
2023/12/08 10:04:22;;;;;;;1999.90;999.90;;;4.20;99.90;;;;;;4989513;28;20113;-70
2023/12/08 10:06:50;;;;;;;1999.90;999.90;;;4.20;99.90;;;;;;4983962;28;20099;-70
2023/12/08 10:09:19;;;;;;;1999.90;999.90;;;4.20;99.90;;;;;;4989825;28;20034;-70
2023/12/08 10:11:45;;;;;;;1999.90;999.90;;;4.20;99.90;;;;;;4972990;28;20058;-70
2023/12/08 10:14:12;;;;;;;1999.90;999.90;;;4.30;99.90;;;;;;4977218;28;20085;-70
2023/12/08 10:16:38;;;;;;;1999.90;999.90;;;4.30;99.90;;;;;;4994222;28;20448;-70
2023/12/08 10:19:05;;;;;;;1999.90;999.90;;;4.20;99.90;;;;;;4992533;28;20030;-70
2023/12/08 10:21:31;;;;;;;;;;;4.30;99.90;;;;;;5004243;28;20037;-70
2023/12/08 10:24:01;;;;;;;1999.90;999.90;;;4.30;99.90;;;;;;4992875;28;19917;-70
2023/12/08 10:26:27;;;;;;;1999.90;999.90;;;4.40;99.90;;;;;;4990508;28;20039;-70
2023/12/08 10:28:57;;;;;;;1999.90;999.90;;;4.40;99.90;;;;;;4997094;28;20028;-70
2023/12/08 10:31:23;;;;;;;1999.90;999.90;;;4.50;99.90;;;;;;5002214;28;20038;-70
2023/12/08 10:33:50;;;;;;;1999.90;999.90;;;4.50;99.90;;;;;;4990743;28;20038;-70
2023/12/08 10:36:16;;;;;;;1999.90;999.90;;;4.50;99.90;;;;;;4991338;28;20045;-70
2023/12/08 10:38:42;;;;;;;1999.90;999.90;;;4.60;99.90;;;;;;4975713;28;20041;-70
2023/12/08 10:41:11;;;;;;;1999.90;999.90;;;4.60;99.90;;;;;;4995001;28;20031;-70
2023/12/08 10:43:39;;;;;;;1999.90;999.90;;;4.70;99.90;;;;;;5000080;28;20323;-70
2023/12/08 10:46:06;;;;;;;1999.90;999.90;;;4.70;99.90;;;;;;4983829;28;20109;-70
2023/12/08 10:48:34;;;;;;;1999.90;999.90;;;4.70;99.90;;;;;;4991305;28;20031;-69
2023/12/08 10:51:00;;;;;;;1999.90;999.90;;;4.80;99.90;;;;;;4992613;28;20076;-70
2023/12/08 10:53:27;;;;;;;1999.90;999.90;;;4.70;99.90;;;;;;4992043;28;20026;-70
2023/12/08 10:55:59;;;;;;;1999.90;999.90;;;4.90;99.90;;;;;;4992138;28;20453;-70
2023/12/08 10:58:28;;;;;;;1999.90;999.90;;;4.90;99.90;;;;;;4985427;28;20038;-70
2023/12/08 11:00:56;;;;;;;1999.90;999.90;;;5.00;99.90;;;;;;4990656;28;20049;-70
2023/12/08 11:03:24;;;;;;;1999.90;999.90;;;5.10;99.90;;;;;;4987263;28;20022;-70
2023/12/08 11:06:04;;;;;;;1999.90;999.90;;;5.00;99.90;;;;;;4991935;28;20037;-70
2023/12/08 11:08:30;;;;;;;1999.90;999.90;;;5.10;99.90;;;;;;5004560;28;20019;-70
2023/12/08 11:10:57;;;;;;;1999.90;999.90;;;5.10;99.90;;;;;;4992231;28;20078;-69
2023/12/08 11:13:27;;;;;;;1999.90;999.90;;;5.20;99.90;;;;;;4990042;28;20041;-70
2023/12/08 11:16:02;;;;;;;1999.90;999.90;;;5.30;99.90;;;;;;5004818;28;20023;-70
2023/12/08 11:18:35;;;;;;;1999.90;999.90;;;5.30;99.90;;;;;;5008467;28;20023;-70
2023/12/08 11:21:05;;;;;;;1999.90;999.90;;;5.40;99.90;;;;;;5022602;28;20030;-70
2023/12/08 11:23:31;;;;;;;1999.90;999.90;;;5.30;99.90;;;;;;4991523;28;20030;-70
2023/12/08 11:26:14;;;;;;;1999.90;999.90;;;5.40;99.90;;;;;;4990290;28;20046;-70
2023/12/08 11:29:19;;;;;;;1999.90;999.90;;;5.30;99.90;;;;;;4994492;28;20027;-70
2023/12/08 11:31:57;;;;;;;1999.90;999.90;;;5.40;99.90;;;;;;5004420;28;20326;-69
2023/12/08 11:34:42;;;;;;;1999.90;999.90;;;5.40;99.90;;;;;;4989937;28;20047;-69
2023/12/08 11:37:08;;;;;;;1999.90;999.90;;;5.50;99.90;;;;;;4995094;28;20022;-70
2023/12/08 11:39:34;;;;;;;1999.90;999.90;;;5.40;99.90;;;;;;4991679;28;20604;-70
2023/12/08 11:42:03;;;;;;;1999.90;999.90;;;5.50;99.90;;;;;;4991381;28;20413;-70
2023/12/08 11:44:33;;;;;;;1999.90;999.90;;;5.60;99.90;;;;;;4974433;28;20034;-70
2023/12/08 11:47:00;;;;;;;1999.90;999.90;;;5.60;99.90;;;;;;5005385;28;20036;-69
2023/12/08 11:49:25;;;;;;;;;;;5.70;99.90;;;;;;4987272;28;20030;-70
2023/12/08 11:52:15;;;;;;;1999.90;999.90;;;5.80;99.90;;;;;;4986868;28;19996;-70
2023/12/08 11:58:01;;;;;;;1999.90;999.90;;;6.00;99.90;;;;;;4986867;28;20030;-69
2023/12/08 12:00:29;;;;;;;1999.90;999.90;;;6.20;99.90;;;;;;5002106;28;20109;-70
2023/12/08 12:02:57;;;;;;;1999.90;999.90;;;6.20;99.90;;;;;;4990636;28;20026;-70
2023/12/08 12:05:23;;;;;;;1999.90;999.90;;;6.20;99.90;;;;;;4977253;28;20030;-69
2023/12/08 12:07:51;;;;;;;1999.90;999.90;;;6.20;99.90;;;;;;4993573;28;20041;-70
2023/12/08 12:10:19;;;;;;;1999.90;999.90;;;6.20;99.90;;;;;;4990468;28;20023;-69
2023/12/08 12:13:11;;;;;;;1999.90;999.90;;;6.20;99.90;;;;;;4990836;28;20042;-70